createdAt,value
2024-01-20T00:00:14.529Z,77.29
2024-01-20T00:02:41.132Z,77.19
2024-01-20T00:05:08.580Z,77.12
2024-01-20T00:07:35.393Z,77.08
2024-01-20T00:10:02.424Z,77.21
2024-01-20T00:12:31.519Z,77.89
2024-01-20T00:14:58.219Z,78.21
2024-01-20T00:17:27.742Z,77.48
2024-01-20T00:19:56.170Z,77.43
2024-01-20T00:22:23.896Z,77.67
2024-01-20T00:24:51.155Z,77.69
2024-01-20T00:27:18.737Z,77.77
2024-01-20T00:29:46.650Z,78.29
2024-01-20T00:32:13.900Z,78.19
2024-01-20T00:34:51.477Z,78.21
2024-01-20T00:37:26.774Z,78.13
2024-01-20T00:39:53.314Z,77.98
2024-01-20T00:42:19.779Z,77.95
2024-01-20T00:44:46.457Z,77.91
2024-01-20T00:47:13.083Z,78.06
2024-01-20T00:49:39.872Z,77.68
2024-01-20T00:52:06.808Z,77.85
2024-01-20T00:54:33.435Z,77.85
2024-01-20T00:56:59.955Z,78.61
2024-01-20T00:59:26.441Z,77.82
2024-01-20T01:01:53.016Z,78.22
2024-01-20T01:04:19.530Z,78.29
2024-01-20T01:06:46.016Z,78.04
2024-01-20T01:09:12.602Z,78.44
2024-01-20T01:11:39.153Z,78.46
2024-01-20T01:14:05.711Z,78.07
2024-01-20T01:16:32.235Z,78.24
2024-01-20T01:18:59.002Z,78.46
2024-01-20T01:21:25.475Z,77.81
2024-01-20T01:23:52.017Z,77.46
2024-01-20T01:26:18.992Z,77.15
2024-01-20T01:28:45.853Z,77.17
2024-01-20T01:31:12.780Z,77.43
2024-01-20T01:33:39.356Z,77.60
2024-01-20T01:36:06.555Z,78.03
2024-01-20T01:38:33.358Z,77.91
2024-01-20T01:41:00.181Z,77.70
2024-01-20T01:43:26.795Z,77.82
2024-01-20T01:45:53.459Z,78.52
2024-01-20T01:48:20.555Z,78.68
2024-01-20T01:50:48.086Z,78.58
2024-01-20T01:53:15.303Z,78.36
2024-01-20T01:55:44.845Z,79.00
2024-01-20T01:58:11.362Z,78.65
2024-01-20T02:00:38.450Z,78.97
2024-01-20T02:03:05.681Z,78.24
2024-01-20T02:05:32.376Z,78.33
2024-01-20T02:07:59.867Z,78.18
2024-01-20T02:10:26.438Z,77.87
2024-01-20T02:12:53.580Z,78.18
2024-01-20T02:15:20.275Z,78.18
2024-01-20T02:17:53.980Z,77.40
2024-01-20T02:20:20.969Z,77.45
2024-01-20T02:22:47.910Z,77.69
2024-01-20T02:25:14.453Z,77.30
2024-01-20T02:27:41.035Z,77.16
2024-01-20T02:30:08.447Z,76.68
2024-01-20T02:32:35.127Z,77.29
2024-01-20T02:35:01.844Z,77.17
2024-01-20T02:37:28.436Z,76.72
2024-01-20T02:39:54.921Z,76.34
2024-01-20T02:42:21.532Z,76.91
2024-01-20T02:44:48.181Z,76.93
2024-01-20T02:47:14.877Z,76.62
2024-01-20T02:49:41.566Z,76.52
2024-01-20T02:52:08.370Z,76.51
2024-01-20T02:54:35.015Z,77.10
2024-01-20T02:57:01.651Z,77.12
2024-01-20T02:59:28.197Z,77.35
2024-01-20T03:01:54.803Z,77.48
2024-01-20T03:04:21.407Z,77.81
2024-01-20T03:06:48.139Z,77.70
2024-01-20T03:09:15.959Z,78.45
2024-01-20T03:11:45.483Z,78.06
2024-01-20T03:14:12.184Z,78.34
2024-01-20T03:16:39.509Z,79.19
2024-01-20T03:19:07.545Z,78.94
2024-01-20T03:21:35.392Z,79.19
2024-01-20T03:24:02.229Z,78.77
2024-01-20T03:26:29.057Z,79.16
2024-01-20T03:28:55.569Z,78.79
2024-01-20T03:31:22.153Z,78.66
2024-01-20T03:33:48.731Z,78.10
2024-01-20T03:36:15.395Z,78.06
2024-01-20T03:38:41.910Z,78.05
2024-01-20T03:41:08.512Z,78.00
2024-01-20T03:43:35.033Z,77.76
2024-01-20T03:46:01.577Z,77.18
2024-01-20T03:48:28.148Z,76.98
2024-01-20T03:50:54.742Z,76.99
2024-01-20T03:53:21.335Z,77.08
2024-01-20T03:55:47.838Z,77.14
2024-01-20T03:58:14.309Z,76.33
2024-01-20T04:00:40.934Z,76.50
2024-01-20T04:03:07.574Z,76.57
2024-01-20T04:05:34.196Z,77.32
2024-01-20T04:08:00.734Z,77.63
2024-01-20T04:10:27.328Z,78.13
2024-01-20T04:12:53.844Z,78.61
2024-01-20T04:15:20.367Z,78.55
2024-01-20T04:17:47.135Z,78.64
2024-01-20T04:20:13.689Z,79.49
2024-01-20T04:22:40.224Z,79.46
2024-01-20T04:25:07.342Z,79.57
2024-01-20T04:27:35.208Z,79.73
2024-01-20T04:30:01.889Z,79.90
2024-01-20T04:32:28.639Z,80.54
2024-01-20T04:34:55.094Z,80.17
2024-01-20T04:37:21.660Z,80.04
2024-01-20T04:39:48.409Z,80.24
2024-01-20T04:42:14.962Z,79.42
2024-01-20T04:44:41.447Z,79.67
2024-01-20T04:47:07.954Z,79.29
2024-01-20T04:49:34.693Z,79.53
2024-01-20T04:52:03.191Z,79.86
2024-01-20T04:54:30.125Z,79.36
2024-01-20T04:56:58.491Z,79.27
2024-01-20T04:59:25.690Z,79.92
2024-01-20T05:01:53.924Z,80.18
2024-01-20T05:04:20.617Z,80.09
2024-01-20T05:06:47.400Z,80.35
2024-01-20T05:09:14.819Z,80.19
2024-01-20T05:11:41.538Z,79.91
2024-01-20T05:14:08.859Z,80.10
2024-01-20T05:16:35.522Z,79.73
2024-01-20T05:19:02.723Z,80.00
2024-01-20T05:21:29.475Z,79.73
2024-01-20T05:23:58.086Z,80.36
2024-01-20T05:26:24.954Z,80.34
2024-01-20T05:28:51.497Z,80.34
2024-01-20T05:31:18.249Z,79.67
2024-01-20T05:33:44.953Z,80.07
2024-01-20T05:36:13.889Z,79.77
2024-01-20T05:38:40.430Z,80.50
2024-01-20T05:41:08.747Z,80.77
2024-01-20T05:43:35.490Z,80.80
2024-01-20T05:46:06.494Z,80.96
2024-01-20T05:48:34.052Z,81.49
2024-01-20T05:51:00.713Z,81.05
2024-01-20T05:53:27.757Z,81.34
2024-01-20T05:55:54.207Z,81.16
2024-01-20T05:58:20.687Z,80.87
2024-01-20T06:00:47.251Z,80.76
2024-01-20T06:03:13.779Z,80.31
2024-01-20T06:05:40.311Z,80.59
2024-01-20T06:08:07.041Z,80.71
2024-01-20T06:10:33.520Z,80.63
2024-01-20T06:13:00.071Z,80.57
2024-01-20T06:15:26.691Z,80.24
2024-01-20T06:17:53.357Z,80.91
2024-01-20T06:20:20.751Z,80.88
2024-01-20T06:22:47.360Z,80.75
2024-01-20T06:25:14.312Z,80.52
2024-01-20T06:27:46.355Z,80.80
2024-01-20T06:30:15.753Z,80.01
2024-01-20T06:32:42.308Z,80.06
2024-01-20T06:35:09.752Z,80.15
2024-01-20T06:37:36.490Z,80.03
2024-01-20T06:40:03.374Z,79.55
2024-01-20T06:42:30.040Z,79.38
2024-01-20T06:44:58.039Z,79.65
2024-01-20T06:47:27.301Z,79.58
2024-01-20T06:49:54.863Z,79.49
2024-01-20T06:52:21.880Z,78.96
2024-01-20T06:54:49.332Z,78.93
2024-01-20T06:57:15.890Z,79.03
2024-01-20T06:59:42.444Z,78.49
2024-01-20T07:02:09.695Z,78.01
2024-01-20T07:04:36.338Z,77.78
2024-01-20T07:07:03.008Z,77.52
2024-01-20T07:09:29.582Z,76.69
2024-01-20T07:11:58.918Z,77.16
2024-01-20T07:14:26.355Z,76.44
2024-01-20T07:16:52.913Z,76.95
2024-01-20T07:19:19.434Z,76.93
2024-01-20T07:21:45.949Z,77.11
2024-01-20T07:24:12.598Z,76.45
2024-01-20T07:26:39.154Z,76.73
2024-01-20T07:29:05.697Z,77.24
2024-01-20T07:31:32.272Z,76.98
2024-01-20T07:33:59.493Z,76.93
2024-01-20T07:36:26.208Z,77.12
2024-01-20T07:38:52.787Z,77.14
2024-01-20T07:41:19.534Z,77.30
2024-01-20T07:43:46.108Z,77.33
2024-01-20T07:46:13.353Z,76.77
2024-01-20T07:48:40.178Z,76.75
2024-01-20T07:51:06.769Z,76.99
2024-01-20T07:53:33.300Z,76.92
2024-01-20T07:55:59.833Z,77.38
2024-01-20T07:58:26.349Z,77.37
2024-01-20T08:00:52.995Z,76.51
2024-01-20T08:03:19.571Z,76.99
2024-01-20T08:05:47.031Z,76.92
2024-01-20T08:08:13.736Z,77.21
2024-01-20T08:10:40.492Z,77.38
2024-01-20T08:13:07.155Z,76.49
2024-01-20T08:15:33.758Z,76.62
2024-01-20T08:18:00.617Z,76.59
2024-01-20T08:20:27.304Z,76.11
2024-01-20T08:22:53.835Z,75.99
2024-01-20T08:25:20.403Z,75.97
2024-01-20T08:27:46.994Z,75.87
2024-01-20T08:30:14.043Z,75.81
2024-01-20T08:32:41.609Z,75.76
2024-01-20T08:35:09.864Z,75.87
2024-01-20T08:37:36.413Z,76.11
2024-01-20T08:40:03.683Z,75.62
2024-01-20T08:42:30.336Z,75.53
2024-01-20T08:44:56.987Z,75.83
2024-01-20T08:47:23.531Z,75.76
2024-01-20T08:49:52.922Z,75.66
2024-01-20T08:52:20.107Z,75.63
2024-01-20T08:54:46.888Z,74.73
2024-01-20T08:57:13.652Z,74.17
2024-01-20T08:59:40.180Z,74.47
2024-01-20T09:02:07.102Z,74.86
2024-01-20T09:04:33.707Z,74.75
2024-01-20T09:07:00.319Z,73.78
2024-01-20T09:09:26.902Z,73.59
2024-01-20T09:11:53.432Z,74.10
2024-01-20T09:14:19.939Z,73.60
2024-01-20T09:16:46.600Z,73.49
2024-01-20T09:19:13.232Z,73.02
2024-01-20T09:21:39.838Z,73.01
2024-01-20T09:24:06.623Z,73.02
2024-01-20T09:26:33.177Z,72.60
2024-01-20T09:28:59.726Z,72.58
2024-01-20T09:31:26.236Z,72.45
2024-01-20T09:33:52.919Z,72.48
2024-01-20T09:36:19.521Z,72.30
2024-01-20T09:38:46.060Z,71.43
2024-01-20T09:41:12.942Z,71.04
2024-01-20T09:43:40.462Z,71.79
2024-01-20T09:46:08.008Z,71.52
2024-01-20T09:48:34.635Z,71.12
2024-01-20T09:51:01.307Z,70.87
2024-01-20T09:53:28.447Z,70.69
2024-01-20T09:55:56.359Z,70.03
2024-01-20T09:58:23.107Z,69.28
2024-01-20T10:00:50.878Z,70.00
2024-01-20T10:03:18.589Z,69.84
2024-01-20T10:05:45.258Z,68.75
2024-01-20T10:08:12.308Z,69.34
2024-01-20T10:10:38.882Z,69.10
2024-01-20T10:13:05.433Z,69.22
2024-01-20T10:15:34.494Z,68.76
2024-01-20T10:18:09.558Z,69.12
2024-01-20T10:20:37.643Z,68.76
2024-01-20T10:23:06.633Z,68.83
2024-01-20T10:25:33.518Z,67.99
2024-01-20T10:28:00.530Z,67.35
2024-01-20T10:30:27.816Z,67.32
2024-01-20T10:33:04.509Z,67.74
2024-01-20T10:35:36.599Z,68.71
2024-01-20T10:38:09.958Z,67.48
2024-01-20T10:40:40.007Z,67.68
2024-01-20T10:43:14.363Z,67.94
2024-01-20T10:45:51.718Z,66.46
2024-01-20T10:48:27.029Z,66.37
2024-01-20T10:50:58.435Z,66.22
2024-01-20T10:53:31.986Z,67.01
2024-01-20T10:55:59.555Z,67.25
2024-01-20T10:58:34.685Z,66.85
2024-01-20T11:01:01.524Z,66.99
2024-01-20T11:03:29.220Z,67.19
2024-01-20T11:05:55.839Z,67.78
2024-01-20T11:08:27.142Z,68.04
2024-01-20T11:10:55.552Z,68.13
2024-01-20T11:13:27.338Z,67.95
2024-01-20T11:15:54.179Z,68.42
2024-01-20T11:18:22.560Z,68.02
2024-01-20T11:21:02.684Z,67.50
2024-01-20T11:23:30.069Z,66.83
2024-01-20T11:25:58.370Z,67.65
2024-01-20T11:28:31.931Z,65.94
2024-01-20T11:30:59.220Z,67.36
2024-01-20T11:33:26.240Z,67.41
2024-01-20T11:35:53.974Z,66.94
2024-01-20T11:38:21.461Z,67.42
2024-01-20T11:41:00.958Z,66.47
2024-01-20T11:43:27.901Z,65.27
2024-01-20T11:45:56.058Z,65.23
2024-01-20T11:48:23.134Z,65.43
2024-01-20T11:50:50.796Z,66.51
2024-01-20T11:53:17.708Z,66.87
2024-01-20T11:55:59.804Z,66.87
2024-01-20T11:58:27.913Z,66.80
2024-01-20T12:00:56.405Z,66.79
2024-01-20T12:03:23.402Z,65.81
2024-01-20T12:05:51.326Z,66.32
2024-01-20T12:08:18.889Z,66.75
2024-01-20T12:10:48.849Z,64.74
2024-01-20T12:13:17.533Z,64.83
2024-01-20T12:15:45.041Z,63.88
2024-01-20T12:18:11.801Z,64.57
2024-01-20T12:20:38.893Z,64.67
2024-01-20T12:23:05.660Z,64.40
2024-01-20T12:25:33.211Z,63.16
2024-01-20T12:28:00.304Z,63.27
2024-01-20T12:30:27.955Z,63.76
2024-01-20T12:32:54.519Z,63.82
2024-01-20T12:35:21.189Z,63.40
2024-01-20T12:37:49.967Z,63.54
2024-01-20T12:40:16.972Z,63.83
2024-01-20T12:42:43.859Z,64.34
2024-01-20T12:45:12.162Z,63.47
2024-01-20T12:47:39.462Z,63.14
2024-01-20T12:50:06.566Z,62.11
2024-01-20T12:52:33.451Z,62.47
2024-01-20T12:55:00.527Z,63.14
2024-01-20T12:57:27.060Z,62.85
2024-01-20T12:59:53.669Z,62.81
2024-01-20T13:02:20.281Z,63.69
2024-01-20T13:04:46.972Z,63.61
2024-01-20T13:07:15.248Z,63.51
2024-01-20T13:09:42.552Z,62.97
2024-01-20T13:12:09.693Z,63.64
2024-01-20T13:14:36.648Z,63.89
2024-01-20T13:17:04.046Z,63.03
2024-01-20T13:19:31.112Z,63.19
2024-01-20T13:21:57.808Z,63.31
2024-01-20T13:24:24.488Z,63.11
2024-01-20T13:26:51.262Z,63.00
2024-01-20T13:29:17.979Z,63.18
2024-01-20T13:31:44.527Z,64.07
2024-01-20T13:34:11.516Z,64.01
2024-01-20T13:36:38.216Z,63.93
2024-01-20T13:39:06.282Z,64.19
2024-01-20T13:41:34.766Z,64.33
2024-01-20T13:44:01.257Z,64.58
2024-01-20T13:46:27.781Z,63.66
2024-01-20T13:48:54.463Z,63.62
2024-01-20T13:51:22.975Z,64.21
2024-01-20T13:53:49.649Z,64.07
2024-01-20T13:56:16.192Z,64.30
2024-01-20T13:58:42.681Z,64.05
2024-01-20T14:01:09.541Z,63.90
2024-01-20T14:03:36.332Z,64.59
2024-01-20T14:06:04.054Z,64.05
2024-01-20T14:08:30.764Z,64.41
2024-01-20T14:10:57.413Z,64.75
2024-01-20T14:13:23.907Z,64.79
2024-01-20T14:15:50.652Z,65.17
2024-01-20T14:18:17.418Z,65.07
2024-01-20T14:20:44.061Z,65.76
2024-01-20T14:23:10.616Z,64.91
2024-01-20T14:25:37.170Z,65.55
2024-01-20T14:28:05.189Z,65.33
2024-01-20T14:30:31.926Z,65.91
2024-01-20T14:32:58.560Z,65.89
2024-01-20T14:35:27.047Z,66.36
2024-01-20T14:37:54.514Z,65.75
2024-01-20T14:40:21.415Z,66.60
2024-01-20T14:42:48.285Z,66.54
2024-01-20T14:45:15.333Z,66.76
2024-01-20T14:47:41.979Z,67.26
2024-01-20T14:50:09.255Z,67.62
2024-01-20T14:52:35.825Z,67.56
2024-01-20T14:55:02.602Z,68.27
2024-01-20T14:57:29.209Z,68.59
2024-01-20T14:59:55.713Z,68.65
2024-01-20T15:02:22.235Z,69.07
2024-01-20T15:04:48.888Z,69.04
2024-01-20T15:07:15.442Z,69.22
2024-01-20T15:09:42.528Z,69.57
2024-01-20T15:12:09.472Z,69.66
2024-01-20T15:14:36.194Z,69.95
2024-01-20T15:17:02.705Z,69.90
2024-01-20T15:19:29.449Z,70.29
2024-01-20T15:21:56.137Z,69.84
2024-01-20T15:24:22.724Z,70.20
2024-01-20T15:26:49.225Z,70.67
2024-01-20T15:29:15.750Z,71.39
2024-01-20T15:31:42.262Z,71.88
2024-01-20T15:34:08.969Z,71.84
2024-01-20T15:36:35.635Z,72.25
2024-01-20T15:39:02.272Z,72.41
2024-01-20T15:41:28.989Z,71.47
2024-01-20T15:43:55.580Z,71.40
2024-01-20T15:46:22.107Z,71.27
2024-01-20T15:48:48.794Z,71.61
2024-01-20T15:51:15.635Z,72.10
2024-01-20T15:53:42.382Z,72.42
2024-01-20T15:56:11.374Z,72.21
2024-01-20T15:58:42.333Z,71.87
2024-01-20T16:01:09.192Z,72.03
2024-01-20T16:03:35.843Z,72.59
2024-01-20T16:06:02.630Z,72.94
2024-01-20T16:08:29.290Z,72.78
2024-01-20T16:10:55.905Z,73.04
2024-01-20T16:13:22.507Z,72.89
2024-01-20T16:15:49.090Z,72.71
2024-01-20T16:18:16.472Z,72.50
2024-01-20T16:20:43.062Z,72.81
2024-01-20T16:23:10.559Z,73.06
2024-01-20T16:25:37.118Z,72.99
2024-01-20T16:28:03.807Z,73.24
2024-01-20T16:30:30.609Z,73.67
2024-01-20T16:32:57.243Z,73.03
2024-01-20T16:35:23.720Z,73.13
2024-01-20T16:37:50.395Z,72.58
2024-01-20T16:40:16.924Z,72.45
2024-01-20T16:42:43.578Z,72.77
2024-01-20T16:45:10.563Z,72.57
2024-01-20T16:47:37.256Z,72.27
2024-01-20T16:50:04.221Z,71.68
2024-01-20T16:52:30.962Z,72.04
2024-01-20T16:54:57.486Z,72.27
2024-01-20T16:57:40.446Z,72.09
2024-01-20T17:00:09.316Z,72.06
2024-01-20T17:02:36.255Z,71.72
2024-01-20T17:05:03.052Z,71.64
2024-01-20T17:07:29.624Z,71.97
2024-01-20T17:09:56.156Z,71.74
2024-01-20T17:12:23.828Z,71.37
2024-01-20T17:14:50.376Z,71.54
2024-01-20T17:17:16.966Z,71.47
2024-01-20T17:19:43.605Z,71.42
2024-01-20T17:22:10.186Z,71.58
2024-01-20T17:24:38.490Z,71.66
2024-01-20T17:27:05.522Z,71.99
2024-01-20T17:29:33.184Z,72.17
2024-01-20T17:32:02.716Z,71.97
2024-01-20T17:34:29.730Z,72.28
2024-01-20T17:36:56.867Z,71.67
2024-01-20T17:39:25.676Z,72.29
2024-01-20T17:41:58.928Z,71.81
2024-01-20T17:44:25.603Z,71.09
2024-01-20T17:46:52.152Z,70.98
2024-01-20T17:49:18.762Z,71.56
2024-01-20T17:51:45.572Z,71.34
2024-01-20T17:54:12.340Z,71.43
2024-01-20T17:56:39.403Z,70.79
2024-01-20T17:59:05.867Z,71.09
2024-01-20T18:01:32.982Z,70.97
2024-01-20T18:03:59.749Z,71.30
2024-01-20T18:06:27.100Z,70.93
2024-01-20T18:08:53.689Z,71.09
2024-01-20T18:11:20.234Z,71.12
2024-01-20T18:13:46.768Z,70.94
2024-01-20T18:16:13.375Z,71.02
2024-01-20T18:18:39.922Z,71.01
2024-01-20T18:21:07.450Z,70.53
2024-01-20T18:23:33.982Z,70.60
2024-01-20T18:26:00.612Z,70.84
2024-01-20T18:28:27.892Z,69.93
2024-01-20T18:30:54.749Z,69.75
2024-01-20T18:33:22.497Z,69.64
2024-01-20T18:35:49.113Z,69.71
2024-01-20T18:38:16.722Z,69.13
2024-01-20T18:40:43.302Z,69.46
2024-01-20T18:43:10.173Z,70.18
2024-01-20T18:45:36.723Z,70.46
2024-01-20T18:48:03.654Z,70.04
2024-01-20T18:50:30.712Z,69.63
2024-01-20T18:52:57.775Z,68.62
2024-01-20T18:55:24.352Z,68.29
2024-01-20T18:57:53.419Z,68.32
2024-01-20T19:00:20.011Z,68.51
2024-01-20T19:02:46.587Z,68.21
2024-01-20T19:05:13.514Z,68.24
2024-01-20T19:07:40.072Z,67.73
2024-01-20T19:10:10.774Z,67.99
2024-01-20T19:12:38.504Z,67.34
2024-01-20T19:15:09.181Z,67.66
2024-01-20T19:17:36.284Z,68.00
2024-01-20T19:20:02.861Z,67.74
2024-01-20T19:22:29.592Z,67.66
2024-01-20T19:24:57.122Z,67.60
2024-01-20T19:27:23.766Z,68.10
2024-01-20T19:29:50.333Z,68.53
2024-01-20T19:32:17.713Z,68.64
2024-01-20T19:34:45.281Z,68.87
2024-01-20T19:37:12.227Z,68.70
2024-01-20T19:39:39.183Z,69.55
2024-01-20T19:42:05.827Z,69.95
2024-01-20T19:44:32.297Z,69.69
2024-01-20T19:46:58.787Z,69.64
2024-01-20T19:49:25.762Z,69.95
2024-01-20T19:51:52.576Z,69.75
2024-01-20T19:54:19.115Z,69.66
2024-01-20T19:56:46.785Z,70.05
2024-01-20T19:59:14.774Z,69.93
2024-01-20T20:01:50.576Z,70.37
2024-01-20T20:04:18.611Z,70.33
2024-01-20T20:06:46.373Z,70.51
2024-01-20T20:09:13.722Z,70.26
2024-01-20T20:11:41.169Z,70.56
2024-01-20T20:14:11.931Z,70.89
2024-01-20T20:16:41.160Z,71.61
2024-01-20T20:19:08.521Z,71.48
2024-01-20T20:21:35.236Z,71.52
2024-01-20T20:24:01.757Z,71.47
2024-01-20T20:26:28.423Z,71.97
2024-01-20T20:28:54.902Z,71.77
2024-01-20T20:31:23.449Z,72.00
2024-01-20T20:33:51.225Z,72.09
2024-01-20T20:36:20.312Z,71.58
2024-01-20T20:38:47.337Z,70.58
2024-01-20T20:41:13.841Z,70.69
2024-01-20T20:43:40.342Z,70.31
2024-01-20T20:46:07.095Z,70.96
2024-01-20T20:48:33.728Z,70.48
2024-01-20T20:51:00.254Z,71.10
2024-01-20T20:53:26.947Z,70.60
2024-01-20T20:55:53.523Z,70.75
2024-01-20T20:58:20.097Z,70.89
2024-01-20T21:00:46.623Z,71.26
2024-01-20T21:03:13.739Z,71.59
2024-01-20T21:05:40.633Z,71.91
2024-01-20T21:08:07.494Z,72.01
2024-01-20T21:10:34.108Z,72.36
2024-01-20T21:13:00.823Z,72.77
2024-01-20T21:15:27.636Z,72.93
2024-01-20T21:17:54.398Z,72.92
2024-01-20T21:20:21.217Z,73.24
2024-01-20T21:22:47.875Z,72.63
2024-01-20T21:25:14.823Z,72.72
2024-01-20T21:27:41.642Z,72.76
2024-01-20T21:30:08.870Z,71.95
2024-01-20T21:32:35.599Z,72.52
2024-01-20T21:35:02.801Z,72.43
2024-01-20T21:37:29.410Z,72.48
2024-01-20T21:39:55.942Z,72.93
2024-01-20T21:42:22.481Z,72.81
2024-01-20T21:44:49.427Z,73.23
2024-01-20T21:47:15.918Z,73.27
2024-01-20T21:49:42.465Z,72.97
2024-01-20T21:52:09.001Z,73.34
2024-01-20T21:54:35.752Z,73.37
2024-01-20T21:57:02.295Z,73.98
2024-01-20T21:59:28.883Z,73.70
2024-01-20T22:01:55.416Z,73.85
2024-01-20T22:04:22.205Z,73.97
2024-01-20T22:06:51.031Z,74.15
2024-01-20T22:09:17.801Z,74.49
2024-01-20T22:11:44.340Z,75.14
2024-01-20T22:14:10.864Z,75.82
2024-01-20T22:16:37.380Z,76.00
2024-01-20T22:19:04.002Z,76.74
2024-01-20T22:21:30.873Z,76.47
2024-01-20T22:23:57.486Z,76.70
2024-01-20T22:26:23.956Z,77.22
2024-01-20T22:28:50.477Z,77.18
2024-01-20T22:31:17.183Z,77.47
2024-01-20T22:33:43.901Z,77.46
2024-01-20T22:36:10.449Z,77.58
2024-01-20T22:38:37.417Z,77.11
2024-01-20T22:41:06.132Z,76.09
2024-01-20T22:43:32.732Z,75.42
2024-01-20T22:45:59.303Z,75.83
2024-01-20T22:48:26.124Z,75.88
2024-01-20T22:50:52.786Z,75.65
2024-01-20T22:53:19.291Z,75.17
2024-01-20T22:55:45.830Z,74.60
2024-01-20T22:58:12.408Z,75.06
2024-01-20T23:00:40.100Z,74.84
2024-01-20T23:03:06.855Z,75.77
2024-01-20T23:05:33.529Z,75.00
2024-01-20T23:08:00.111Z,75.05
2024-01-20T23:10:27.423Z,75.17
2024-01-20T23:12:54.038Z,74.60
2024-01-20T23:15:20.738Z,74.64
2024-01-20T23:17:47.286Z,75.12
2024-01-20T23:20:15.820Z,74.97
2024-01-20T23:22:42.611Z,75.12
2024-01-20T23:25:10.466Z,75.38
2024-01-20T23:27:37.445Z,75.66
2024-01-20T23:30:04.430Z,75.11
2024-01-20T23:32:31.169Z,75.65
2024-01-20T23:34:57.876Z,75.84
2024-01-20T23:37:24.799Z,75.72
2024-01-20T23:39:51.353Z,75.92
2024-01-20T23:42:17.965Z,76.47
2024-01-20T23:44:44.504Z,76.70
2024-01-20T23:47:11.005Z,76.38
2024-01-20T23:49:37.760Z,76.66
2024-01-20T23:52:05.002Z,77.14
2024-01-20T23:54:31.538Z,77.68
2024-01-20T23:56:58.062Z,77.28
2024-01-20T23:59:24.523Z,77.39
